createdAt,value
2022-11-20T12:40:07.186Z,18.04
2022-11-20T12:40:17.321Z,19.23
2022-11-20T12:40:27.560Z,18.97
2022-11-20T12:40:37.551Z,18.93
2022-11-20T12:40:47.316Z,18.93
2022-11-20T12:40:57.567Z,18.88
2022-11-20T12:41:07.554Z,18.88
2022-11-20T12:41:17.554Z,18.82
2022-11-20T12:41:27.561Z,18.89
2022-11-20T12:41:37.556Z,18.90
2022-11-20T12:41:47.556Z,18.95
2022-11-20T12:41:57.558Z,18.94
2022-11-20T12:42:07.572Z,18.95
2022-11-20T12:42:17.562Z,18.94
2022-11-20T12:42:27.560Z,18.93
2022-11-20T12:42:37.565Z,18.97
2022-11-20T12:42:47.565Z,18.99
2022-11-20T12:42:57.564Z,19.09
2022-11-20T12:43:07.568Z,19.09
2022-11-20T12:43:17.572Z,19.07
2022-11-20T12:43:27.569Z,19.09
2022-11-20T12:43:37.575Z,19.11
2022-11-20T12:43:47.338Z,19.11
2022-11-20T12:43:57.343Z,19.17
2022-11-20T12:44:07.570Z,19.13
2022-11-20T12:44:17.337Z,19.13
2022-11-20T12:44:27.572Z,19.20
2022-11-20T12:44:37.344Z,19.20
2022-11-20T12:44:47.582Z,19.23
2022-11-20T12:45:04.428Z,19.23
2022-11-20T12:45:14.664Z,19.36
2022-11-20T12:45:24.667Z,19.34
2022-11-20T12:45:34.665Z,19.32
2022-11-20T12:45:44.667Z,19.37
2022-11-20T12:45:54.669Z,19.48
2022-11-20T12:46:04.667Z,19.54
2022-11-20T12:46:14.671Z,19.48
2022-11-20T12:46:24.668Z,19.52
2022-11-20T12:46:34.438Z,19.52
2022-11-20T12:46:44.676Z,19.55
2022-11-20T12:46:54.671Z,19.55
2022-11-20T12:47:04.459Z,19.55
2022-11-20T12:47:14.442Z,19.63
2022-11-20T12:47:24.676Z,19.63
2022-11-20T12:47:34.711Z,19.66
2022-11-20T12:47:44.679Z,19.72
